Aviation Digital Data Service (ADDS)

Output produced by METARs form (1517 UTC 22 April 2021)
found at http://www.aviationweather.gov/metar/data/
 
VTUD 221400Z 17003KT CAVOK 30/24 Q1007 NOSIG
VTUD 221300Z 00000KT CAVOK 30/23 Q1006 NOSIG
VTUD 221200Z 21003KT 180V240 CAVOK 33/22 Q1005 NOSIG
VTUD 221100Z 23004KT 9999 FEW035 34/21 Q1004 NOSIG
VTUD 221000Z 25005KT 210V270 9999 FEW035 36/21 Q1004 NOSIG
VTUD 220900Z VRB03KT 9999 FEW035 36/22 Q1004 NOSIG
VTUD 220800Z VRB04KT 9999 FEW035 36/23 Q1005 NOSIG
VTUD 220700Z VRB03KT 9999 FEW035 37/23 Q1007 NOSIG
VTUD 220600Z 28004KT 210V010 9999 FEW035 35/24 Q1008 NOSIG
VTUD 220500Z 19005KT 130V240 9999 FEW035 35/24 Q1009 NOSIG
VTUD 220400Z VRB04KT CAVOK 33/23 Q1010 NOSIG
VTUD 220300Z 22003KT 160V320 CAVOK 31/23 Q1011 NOSIG
VTUD 220200Z 30005KT 240V340 CAVOK 30/24 Q1011 NOSIG
VTUD 220100Z VRB02KT CAVOK 29/24 Q1010 NOSIG
VTUD 220000Z 09002KT 8000 FEW035 BKN100 27/24 Q1010 NOSIG
VTUD 212300Z 08002KT 8000 NSC 25/23 Q1009 NOSIG
TAF VTUD 221100Z 2212/2312 18004KT 9000 FEW035